Aranspass, Texas
Current Conditions -  °F | °C
As of 11:15 AM on Thursday 23 Oct 2014 (Local Time) from KTFP Reporting Station
Clear Clear  
Wind Chill: 80°   Ceiling: Unl
Heat Index: 81°   Visibility: 10mi
Dew Point: 63°   Wind: 8mph
Humidity: 56%   Direction: 50°NE
Pressure: 30.12"   Gusts: NA
Location:  27.9399°N, 97.1805°W
Report Text: KTFP 231615Z AUTO 05007KT 10SM CLR 27/17 A3012 RMK AO2 T02650172
Loading
Personal Weather Stations






























Interactive Weather Map New forecast layout! Learn more

10-Day Weather Forecast

Advertisements
Track Severe Weather on mobile